Time,TemperatureF,DewpointF,PressureIn,WindDirection,WindDirectionDegrees,WindSpeedMPH,WindSpeedGustMPH,Humidity,HourlyPrecipIn,Conditions,Clouds,dailyrainin,SoftwareType,DateUTC
2013-07-21 00:00:00,72.0,69.2,29.93,South,173,2.0,4.0,91,0.00,RA,,0.00,WeatherDisplay:10.37,2013-07-21 05:00:00,
2013-07-21 00:10:00,71.8,69.0,29.93,South,173,1.0,3.0,91,0.00,RA,,0.00,WeatherDisplay:10.37,2013-07-21 05:10:00,
2013-07-21 00:20:00,71.5,69.1,29.93,South,173,1.0,4.0,92,0.00,RA,,0.00,WeatherDisplay:10.37,2013-07-21 05:20:00,
2013-07-21 00:30:00,71.3,68.5,29.92,South,173,0.0,3.0,91,0.00,CLR,,0.00,WeatherDisplay:10.37,2013-07-21 05:30:00,
2013-07-21 00:40:00,71.1,68.6,29.92,South,173,0.0,1.0,92,0.00,CLR,,0.00,WeatherDisplay:10.37,2013-07-21 05:40:00,
2013-07-21 00:50:00,70.9,68.5,29.92,South,173,0.0,1.0,92,0.00,CLR,,0.00,WeatherDisplay:10.37,2013-07-21 05:50:00,
2013-07-21 01:00:00,70.8,68.0,29.91,South,173,0.0,1.0,91,0.00,CLR,,0.00,WeatherDisplay:10.37,2013-07-21 06:00:00,
2013-07-21 01:10:00,70.8,68.3,29.91,South,173,0.0,0.0,92,0.00,CLR,,0.00,WeatherDisplay:10.37,2013-07-21 06:10:00,
2013-07-21 01:20:00,70.5,67.8,29.91,South,173,0.0,3.0,91,0.00,CLR,,0.00,WeatherDisplay:10.37,2013-07-21 06:20:00,
2013-07-21 01:30:00,70.4,67.6,29.91,South,173,0.0,0.0,91,0.00,CLR,,0.00,WeatherDisplay:10.37,2013-07-21 06:30:00,
2013-07-21 01:40:00,70.2,67.4,29.91,South,173,0.0,2.0,91,0.00,CLR,,0.00,WeatherDisplay:10.37,2013-07-21 06:40:00,
2013-07-21 01:50:00,70.0,67.2,29.91,South,173,0.0,3.0,91,0.00,CLR,,0.00,WeatherDisplay:10.37,2013-07-21 06:50:00,
2013-07-21 02:00:00,69.8,67.3,29.91,South,173,0.0,2.0,92,0.00,CLR,,0.00,WeatherDisplay:10.37,2013-07-21 07:00:00,
2013-07-21 02:10:00,69.7,67.2,29.91,South,173,0.0,1.0,92,0.00,CLR,,0.00,WeatherDisplay:10.37,2013-07-21 07:10:00,
2013-07-21 02:20:00,69.6,67.2,29.91,South,173,0.0,1.0,92,0.00,CLR,,0.00,WeatherDisplay:10.37,2013-07-21 07:20:00,
2013-07-21 02:30:00,69.6,67.1,29.90,South,173,0.0,0.0,92,0.00,CLR,,0.00,WeatherDisplay:10.37,2013-07-21 07:30:00,
2013-07-21 02:40:00,69.5,66.7,29.90,South,173,0.0,0.0,91,0.00,CLR,,0.00,WeatherDisplay:10.37,2013-07-21 07:40:00,
2013-07-21 02:50:00,69.2,66.7,29.90,South,173,0.0,0.0,92,0.00,RA,,0.01,WeatherDisplay:10.37,2013-07-21 07:50:00,
2013-07-21 03:00:00,69.2,66.7,29.90,South,173,0.0,1.0,92,0.00,RA,,0.01,WeatherDisplay:10.37,2013-07-21 08:00:00,
2013-07-21 03:10:00,69.4,66.9,29.90,South,173,0.0,1.0,92,0.00,RA,,0.01,WeatherDisplay:10.37,2013-07-21 08:10:00,
2013-07-21 03:20:00,69.4,66.9,29.90,South,173,0.0,1.0,92,0.00,CLR,,0.01,WeatherDisplay:10.37,2013-07-21 08:20:00,
2013-07-21 03:30:00,69.4,66.9,29.89,South,173,0.0,2.0,92,0.00,CLR,,0.01,WeatherDisplay:10.37,2013-07-21 08:30:00,
2013-07-21 03:35:00,69.3,66.8,29.89,South,173,0.0,3.0,92,0.00,CLR,,0.01,WeatherDisplay:10.37,2013-07-21 08:35:00,
2013-07-21 03:40:00,69.1,66.7,29.89,South,173,0.0,0.0,92,0.00,CLR,,0.01,WeatherDisplay:10.37,2013-07-21 08:40:00,
2013-07-21 03:45:00,69.0,66.6,29.88,South,173,0.0,0.0,92,0.00,CLR,,0.01,WeatherDisplay:10.37,2013-07-21 08:45:00,
2013-07-21 03:50:00,68.9,66.5,29.88,South,173,0.0,1.0,92,0.00,CLR,,0.01,WeatherDisplay:10.37,2013-07-21 08:50:00,
2013-07-21 04:00:00,68.9,66.4,29.88,South,173,0.0,1.0,92,0.00,CLR,,0.01,WeatherDisplay:10.37,2013-07-21 09:00:00,
2013-07-21 04:10:00,68.8,66.4,29.88,South,173,0.0,1.0,92,0.00,SCT,,0.01,WeatherDisplay:10.37,2013-07-21 09:10:00,
2013-07-21 04:15:00,68.8,66.3,29.88,South,173,0.0,1.0,92,0.00,SCT,,0.01,WeatherDisplay:10.37,2013-07-21 09:15:00,
2013-07-21 04:20:00,68.7,66.2,29.87,South,173,0.0,1.0,92,0.00,SCT,,0.01,WeatherDisplay:10.37,2013-07-21 09:20:00,
2013-07-21 04:25:00,68.7,66.2,29.87,South,173,0.0,2.0,92,0.00,SCT,,0.01,WeatherDisplay:10.37,2013-07-21 09:25:00,
2013-07-21 04:30:00,68.7,66.2,29.87,South,173,0.0,2.0,92,0.00,SCT,,0.01,WeatherDisplay:10.37,2013-07-21 09:30:00,
2013-07-21 04:40:00,68.6,66.1,29.87,South,173,0.0,1.0,92,0.00,SCT,,0.01,WeatherDisplay:10.37,2013-07-21 09:40:00,
2013-07-21 04:50:00,68.4,65.9,29.88,South,173,0.0,1.0,92,0.00,SCT,,0.01,WeatherDisplay:10.37,2013-07-21 09:50:00,
2013-07-21 05:00:00,68.3,65.8,29.88,South,173,0.0,1.0,92,0.00,SCT,,0.01,WeatherDisplay:10.37,2013-07-21 10:00:00,
2013-07-21 05:10:00,68.2,65.8,29.88,South,173,1.0,3.0,92,0.00,BKN,,0.01,WeatherDisplay:10.37,2013-07-21 10:10:00,
2013-07-21 05:15:00,68.2,65.8,29.87,South,173,0.0,4.0,92,0.00,BKN,,0.01,WeatherDisplay:10.37,2013-07-21 10:15:00,
2013-07-21 05:20:00,68.2,65.7,29.87,South,173,0.0,2.0,92,0.00,BKN,,0.01,WeatherDisplay:10.37,2013-07-21 10:20:00,
2013-07-21 05:30:00,68.3,65.9,29.87,South,173,2.0,3.0,92,0.00,BKN,,0.01,WeatherDisplay:10.37,2013-07-21 10:30:00,
2013-07-21 05:40:00,68.5,66.0,29.88,South,173,1.0,3.0,92,0.00,BKN,,0.01,WeatherDisplay:10.37,2013-07-21 10:40:00,
2013-07-21 05:50:00,68.5,66.1,29.88,South,173,0.0,1.0,92,0.00,BKN,,0.01,WeatherDisplay:10.37,2013-07-21 10:50:00,
2013-07-21 06:00:00,68.7,66.2,29.88,South,173,2.0,4.0,92,0.00,BKN,,0.01,WeatherDisplay:10.37,2013-07-21 11:00:00,
2013-07-21 06:10:00,68.7,66.2,29.89,South,173,1.0,3.0,92,0.00,SCT,,0.01,WeatherDisplay:10.37,2013-07-21 11:10:00,
2013-07-21 06:20:00,68.8,66.3,29.89,South,173,2.0,4.0,92,0.00,SCT,,0.01,WeatherDisplay:10.37,2013-07-21 11:20:00,
2013-07-21 06:30:00,68.8,66.3,29.89,South,173,0.0,2.0,92,0.00,SCT,,0.01,WeatherDisplay:10.37,2013-07-21 11:30:00,
2013-07-21 06:40:00,68.8,66.3,29.89,South,173,0.0,1.0,92,0.00,SCT,,0.01,WeatherDisplay:10.37,2013-07-21 11:40:00,
2013-07-21 06:50:00,68.8,66.3,29.90,South,173,0.0,0.0,92,0.00,SCT,,0.01,WeatherDisplay:10.37,2013-07-21 11:50:00,
2013-07-21 07:00:00,68.8,66.3,29.89,South,173,0.0,0.0,92,0.00,SCT,,0.01,WeatherDisplay:10.37,2013-07-21 12:00:00,
2013-07-21 07:10:00,68.9,66.4,29.89,South,173,0.0,0.0,92,0.00,BKN,,0.01,WeatherDisplay:10.37,2013-07-21 12:10:00,
2013-07-21 07:20:00,69.1,66.7,29.90,South,173,0.0,0.0,92,0.00,BKN,,0.01,WeatherDisplay:10.37,2013-07-21 12:20:00,
2013-07-21 07:30:00,69.6,67.1,29.90,South,173,0.0,2.0,92,0.00,BKN,,0.01,WeatherDisplay:10.37,2013-07-21 12:30:00,
2013-07-21 07:40:00,69.6,67.2,29.90,South,173,0.0,1.0,92,0.00,BKN,,0.01,WeatherDisplay:10.37,2013-07-21 12:40:00,
2013-07-21 07:45:00,69.6,67.1,29.90,South,173,0.0,2.0,92,0.00,BKN,,0.01,WeatherDisplay:10.37,2013-07-21 12:45:00,
2013-07-21 07:50:00,69.6,67.1,29.91,South,173,0.0,4.0,92,0.00,BKN,,0.01,WeatherDisplay:10.37,2013-07-21 12:50:00,
2013-07-21 08:00:00,69.8,67.4,29.90,South,173,2.0,5.0,92,0.00,BKN,,0.01,WeatherDisplay:10.37,2013-07-21 13:00:00,
2013-07-21 08:10:00,70.7,68.2,29.90,SSW,196,5.0,8.0,92,0.00,CLR,,0.01,WeatherDisplay:10.37,2013-07-21 13:10:00,
2013-07-21 08:20:00,71.0,68.2,29.90,SSW,213,6.0,8.0,91,0.00,CLR,,0.01,WeatherDisplay:10.37,2013-07-21 13:20:00,
2013-07-21 08:30:00,71.4,68.3,29.90,SSW,205,6.0,9.0,90,0.00,CLR,,0.01,WeatherDisplay:10.37,2013-07-21 13:30:00,
2013-07-21 08:40:00,71.3,67.9,29.90,SSW,210,6.0,10.0,89,0.00,CLR,,0.01,WeatherDisplay:10.37,2013-07-21 13:40:00,
2013-07-21 08:50:00,71.5,68.1,29.91,SSW,211,6.0,8.0,89,0.00,CLR,,0.01,WeatherDisplay:10.37,2013-07-21 13:50:00,
2013-07-21 09:00:00,71.8,68.4,29.90,SSW,208,3.0,7.0,89,0.00,CLR,,0.01,WeatherDisplay:10.37,2013-07-21 14:00:00,
2013-07-21 09:10:00,71.7,67.9,29.90,SSW,210,7.0,9.0,88,0.00,SCT,,0.01,WeatherDisplay:10.37,2013-07-21 14:10:00,
2013-07-21 09:15:00,71.7,67.9,29.91,SSW,208,5.0,7.0,88,0.00,SCT,,0.01,WeatherDisplay:10.37,2013-07-21 14:15:00,
2013-07-21 09:20:00,71.7,67.9,29.90,SSW,206,5.0,8.0,88,0.00,SCT,,0.01,WeatherDisplay:10.37,2013-07-21 14:20:00,
2013-07-21 09:30:00,71.9,67.8,29.91,SW,216,6.0,8.0,87,0.00,SCT,,0.01,WeatherDisplay:10.37,2013-07-21 14:30:00,
2013-07-21 09:35:00,72.0,68.0,29.91,SW,216,6.0,8.0,87,0.00,SCT,,0.01,WeatherDisplay:10.37,2013-07-21 14:35:00,
2013-07-21 09:40:00,72.1,68.0,29.90,SW,219,5.0,8.0,87,0.00,SCT,,0.01,WeatherDisplay:10.37,2013-07-21 14:40:00,
2013-07-21 09:50:00,72.6,68.1,29.91,SW,217,6.0,10.0,86,0.00,SCT,,0.01,WeatherDisplay:10.37,2013-07-21 14:50:00,
2013-07-21 10:00:00,73.0,68.3,29.91,SW,217,5.0,8.0,85,0.00,SCT,,0.01,WeatherDisplay:10.37,2013-07-21 15:00:00,
2013-07-21 10:10:00,73.4,68.2,29.91,SSW,204,6.0,12.0,84,0.00,SCT,,0.01,WeatherDisplay:10.37,2013-07-21 15:10:00,
2013-07-21 10:15:00,73.8,68.7,29.91,SSW,208,6.0,12.0,84,0.00,SCT,,0.01,WeatherDisplay:10.37,2013-07-21 15:15:00,
2013-07-21 10:25:00,74.2,68.7,29.91,SSW,204,7.0,10.0,83,0.00,SCT,,0.01,WeatherDisplay:10.37,2013-07-21 15:25:00,
2013-07-21 10:30:00,74.7,69.2,29.91,SSW,207,5.0,9.0,83,0.00,SCT,,0.01,WeatherDisplay:10.37,2013-07-21 15:30:00,
2013-07-21 10:40:00,75.4,69.2,29.91,SSW,209,7.0,10.0,81,0.00,SCT,,0.01,WeatherDisplay:10.37,2013-07-21 15:40:00,
2013-07-21 10:50:00,75.8,69.2,29.92,SSW,208,7.0,10.0,80,0.00,SCT,,0.01,WeatherDisplay:10.37,2013-07-21 15:50:00,
2013-07-21 11:00:00,76.2,69.2,29.92,SSW,209,6.0,9.0,79,0.00,SCT,,0.01,WeatherDisplay:10.37,2013-07-21 16:00:00,
2013-07-21 11:10:00,76.4,69.0,29.91,SW,220,5.0,9.0,78,0.00,OVC,,0.01,WeatherDisplay:10.37,2013-07-21 16:10:00,
2013-07-21 11:20:00,76.3,68.6,29.91,SW,223,6.0,10.0,77,0.00,OVC,,0.01,WeatherDisplay:10.37,2013-07-21 16:20:00,
2013-07-21 11:25:00,76.5,68.8,29.91,SW,222,7.0,13.0,77,0.00,OVC,,0.01,WeatherDisplay:10.37,2013-07-21 16:25:00,
2013-07-21 11:30:00,76.2,68.4,29.91,SW,214,6.0,12.0,77,0.00,OVC,,0.01,WeatherDisplay:10.37,2013-07-21 16:30:00,
2013-07-21 11:40:00,76.3,68.9,29.91,SSW,212,5.0,12.0,78,0.00,OVC,,0.01,WeatherDisplay:10.37,2013-07-21 16:40:00,
2013-07-21 11:45:00,76.8,69.0,29.91,SSW,202,5.0,9.0,77,0.00,OVC,,0.01,WeatherDisplay:10.37,2013-07-21 16:45:00,
2013-07-21 11:50:00,77.3,68.7,29.91,SSW,212,7.0,10.0,75,0.00,OVC,,0.01,WeatherDisplay:10.37,2013-07-21 16:50:00,
2013-07-21 12:00:00,77.2,69.0,29.91,SW,219,7.0,12.0,76,0.00,OVC,,0.01,WeatherDisplay:10.37,2013-07-21 17:00:00,
2013-07-21 12:10:00,77.7,68.8,29.90,SSW,204,7.0,12.0,74,0.00,OVC,,0.01,WeatherDisplay:10.37,2013-07-21 17:10:00,
2013-07-21 12:20:00,78.6,69.6,29.90,SSW,212,6.0,10.0,74,0.00,OVC,,0.01,WeatherDisplay:10.37,2013-07-21 17:20:00,
2013-07-21 12:25:00,78.6,69.6,29.90,SSW,206,5.0,10.0,74,0.00,OVC,,0.01,WeatherDisplay:10.37,2013-07-21 17:25:00,
2013-07-21 12:35:00,78.8,69.0,29.90,SSW,201,3.0,8.0,72,0.00,OVC,,0.01,WeatherDisplay:10.37,2013-07-21 17:35:00,
2013-07-21 12:40:00,79.2,68.9,29.90,SSW,193,6.0,12.0,71,0.00,OVC,,0.01,WeatherDisplay:10.37,2013-07-21 17:40:00,
2013-07-21 12:50:00,79.2,68.5,29.89,SSW,194,5.0,9.0,70,0.00,OVC,,0.01,WeatherDisplay:10.37,2013-07-21 17:50:00,
2013-07-21 13:00:00,79.2,69.0,29.89,SSW,210,3.0,8.0,71,0.00,OVC,,0.01,WeatherDisplay:10.37,2013-07-21 18:00:00,
2013-07-21 13:10:00,79.3,69.1,29.88,SSW,208,5.0,9.0,71,0.00,OVC,,0.01,WeatherDisplay:10.37,2013-07-21 18:10:00,
2013-07-21 13:20:00,80.1,69.0,29.88,SSW,206,5.0,12.0,69,0.00,OVC,,0.01,WeatherDisplay:10.37,2013-07-21 18:20:00,
2013-07-21 13:30:00,80.7,69.1,29.87,SW,216,5.0,8.0,68,0.00,OVC,,0.01,WeatherDisplay:10.37,2013-07-21 18:30:00,
2013-07-21 13:40:00,80.7,69.2,29.87,SSW,197,5.0,11.0,68,0.00,OVC,,0.01,WeatherDisplay:10.37,2013-07-21 18:40:00,
2013-07-21 13:45:00,80.8,69.3,29.87,SSW,202,5.0,8.0,68,0.00,OVC,,0.01,WeatherDisplay:10.37,2013-07-21 18:45:00,
2013-07-21 13:50:00,81.3,68.4,29.87,SW,226,6.0,9.0,65,0.00,OVC,,0.01,WeatherDisplay:10.37,2013-07-21 18:50:00,
2013-07-21 14:00:00,81.3,69.7,29.86,SSW,211,3.0,10.0,68,0.00,OVC,,0.01,WeatherDisplay:10.37,2013-07-21 19:00:00,
2013-07-21 14:10:00,82.3,68.9,29.86,South,190,5.0,8.0,64,0.00,BKN,,0.01,WeatherDisplay:10.37,2013-07-21 19:10:00,
2013-07-21 14:15:00,82.7,69.2,29.86,SSW,201,3.0,8.0,64,0.00,BKN,,0.01,WeatherDisplay:10.37,2013-07-21 19:15:00,
2013-07-21 14:20:00,82.7,68.8,29.85,SSW,209,5.0,9.0,63,0.00,BKN,,0.01,WeatherDisplay:10.37,2013-07-21 19:20:00,
2013-07-21 14:30:00,81.9,68.9,29.85,SW,216,2.0,8.0,65,0.00,BKN,,0.01,WeatherDisplay:10.37,2013-07-21 19:30:00,
2013-07-21 14:40:00,82.8,68.9,29.85,SSW,210,6.0,12.0,63,0.00,BKN,,0.01,WeatherDisplay:10.37,2013-07-21 19:40:00,
2013-07-21 14:50:00,82.8,69.3,29.85,SW,224,2.0,6.0,64,0.00,BKN,,0.01,WeatherDisplay:10.37,2013-07-21 19:50:00,
2013-07-21 15:00:00,82.0,68.6,29.84,SW,215,1.0,9.0,64,0.00,BKN,,0.01,WeatherDisplay:10.37,2013-07-21 20:00:00,
2013-07-21 15:10:00,82.8,68.9,29.84,SSW,203,5.0,8.0,63,0.00,FEW,,0.01,WeatherDisplay:10.37,2013-07-21 20:10:00,
2013-07-21 15:20:00,83.8,68.9,29.84,SSW,206,7.0,9.0,61,0.00,FEW,,0.01,WeatherDisplay:10.37,2013-07-21 20:20:00,
2013-07-21 15:30:00,83.4,69.1,29.84,SW,218,3.0,7.0,62,0.00,FEW,,0.01,WeatherDisplay:10.37,2013-07-21 20:30:00,
2013-07-21 15:40:00,84.0,69.1,29.84,SW,222,1.0,3.0,61,0.00,FEW,,0.01,WeatherDisplay:10.37,2013-07-21 20:40:00,
2013-07-21 15:50:00,84.5,68.6,29.84,SSW,211,5.0,8.0,59,0.00,FEW,,0.01,WeatherDisplay:10.37,2013-07-21 20:50:00,
2013-07-21 16:00:00,85.4,68.9,29.84,SW,216,2.0,6.0,58,0.00,FEW,,0.01,WeatherDisplay:10.37,2013-07-21 21:00:00,
2013-07-21 16:10:00,86.4,68.4,29.83,WSW,252,1.0,8.0,55,0.00,BKN,,0.01,WeatherDisplay:10.37,2013-07-21 21:10:00,
2013-07-21 16:15:00,87.0,68.9,29.83,SW,235,3.0,7.0,55,0.00,BKN,,0.01,WeatherDisplay:10.37,2013-07-21 21:15:00,
2013-07-21 16:20:00,86.4,67.8,29.83,SW,224,3.0,8.0,54,0.00,BKN,,0.01,WeatherDisplay:10.37,2013-07-21 21:20:00,
2013-07-21 16:30:00,85.2,67.7,29.82,SSW,210,3.0,6.0,56,0.00,BKN,,0.01,WeatherDisplay:10.37,2013-07-21 21:30:00,
2013-07-21 16:40:00,86.2,67.6,29.82,SW,218,6.0,8.0,54,0.00,BKN,,0.01,WeatherDisplay:10.37,2013-07-21 21:40:00,
2013-07-21 16:50:00,86.4,68.9,29.82,South,176,3.0,8.0,56,0.00,BKN,,0.01,WeatherDisplay:10.37,2013-07-21 21:50:00,
2013-07-21 16:55:00,86.2,68.7,29.82,SSE,164,3.0,5.0,56,0.00,BKN,,0.01,WeatherDisplay:10.37,2013-07-21 21:55:00,
2013-07-21 17:00:00,85.6,67.5,29.82,South,180,2.0,8.0,55,0.00,BKN,,0.01,WeatherDisplay:10.37,2013-07-21 22:00:00,
2013-07-21 17:10:00,84.7,67.3,29.81,SSW,203,2.0,5.0,56,0.00,FEW,,0.01,WeatherDisplay:10.37,2013-07-21 22:10:00,
2013-07-21 17:20:00,86.2,68.1,29.81,South,184,6.0,10.0,55,0.00,FEW,,0.01,WeatherDisplay:10.37,2013-07-21 22:20:00,
2013-07-21 17:30:00,86.0,67.5,29.81,South,181,5.0,9.0,54,0.00,FEW,,0.01,WeatherDisplay:10.37,2013-07-21 22:30:00,
2013-07-21 17:35:00,86.3,67.2,29.80,South,182,3.0,10.0,53,0.00,FEW,,0.01,WeatherDisplay:10.37,2013-07-21 22:35:00,
2013-07-21 17:40:00,86.3,67.1,29.80,South,175,2.0,9.0,53,0.00,FEW,,0.01,WeatherDisplay:10.37,2013-07-21 22:40:00,
2013-07-21 17:50:00,86.2,67.1,29.80,SSW,205,5.0,7.0,53,0.00,FEW,,0.01,WeatherDisplay:10.37,2013-07-21 22:50:00,
2013-07-21 18:00:00,86.6,67.9,29.81,SW,219,5.0,9.0,54,0.00,FEW,,0.01,WeatherDisplay:10.37,2013-07-21 23:00:00,
2013-07-21 18:10:00,86.8,67.6,29.81,South,187,5.0,9.0,53,0.00,FEW,,0.01,WeatherDisplay:10.37,2013-07-21 23:10:00,
2013-07-21 18:15:00,86.2,67.6,29.81,South,176,3.0,9.0,54,0.00,FEW,,0.01,WeatherDisplay:10.37,2013-07-21 23:15:00,
2013-07-21 18:20:00,86.1,68.0,29.80,South,181,3.0,9.0,55,0.00,FEW,,0.01,WeatherDisplay:10.37,2013-07-21 23:20:00,
2013-07-21 18:25:00,85.9,67.4,29.80,South,183,2.0,7.0,54,0.00,FEW,,0.01,WeatherDisplay:10.37,2013-07-21 23:25:00,
2013-07-21 18:30:00,85.8,68.3,29.81,SSW,194,1.0,7.0,56,0.00,FEW,,0.01,WeatherDisplay:10.37,2013-07-21 23:30:00,
2013-07-21 18:35:00,85.5,67.5,29.81,South,191,5.0,7.0,55,0.00,FEW,,0.01,WeatherDisplay:10.37,2013-07-21 23:35:00,
2013-07-21 18:40:00,84.8,67.3,29.81,SSW,193,2.0,5.0,56,0.00,FEW,,0.01,WeatherDisplay:10.37,2013-07-21 23:40:00,
2013-07-21 18:45:00,84.9,67.4,29.81,SSW,192,1.0,4.0,56,0.00,FEW,,0.01,WeatherDisplay:10.37,2013-07-21 23:45:00,
2013-07-21 18:50:00,85.1,67.1,29.81,South,174,3.0,6.0,55,0.00,FEW,,0.01,WeatherDisplay:10.37,2013-07-21 23:50:00,
2013-07-21 19:00:00,85.5,68.0,29.81,South,182,1.0,5.0,56,0.00,FEW,,0.01,WeatherDisplay:10.37,2013-07-22 00:00:00,
2013-07-21 19:10:00,85.5,68.0,29.82,SSW,209,3.0,7.0,56,0.00,SCT,,0.01,WeatherDisplay:10.37,2013-07-22 00:10:00,
2013-07-21 19:20:00,85.2,67.2,29.82,SSW,211,3.0,6.0,55,0.00,SCT,,0.01,WeatherDisplay:10.37,2013-07-22 00:20:00,
2013-07-21 19:30:00,85.3,67.3,29.81,SSW,199,2.0,4.0,55,0.00,SCT,,0.01,WeatherDisplay:10.37,2013-07-22 00:30:00,
2013-07-21 19:40:00,84.6,67.7,29.81,SSW,211,3.0,5.0,57,0.00,SCT,,0.01,WeatherDisplay:10.37,2013-07-22 00:40:00,
2013-07-21 19:50:00,83.9,68.1,29.81,SW,221,2.0,5.0,59,0.00,SCT,,0.01,WeatherDisplay:10.37,2013-07-22 00:50:00,
2013-07-21 19:55:00,83.5,68.1,29.81,SW,218,1.0,5.0,60,0.00,SCT,,0.01,WeatherDisplay:10.37,2013-07-22 00:55:00,
2013-07-21 20:00:00,83.3,67.9,29.81,SW,217,1.0,4.0,60,0.00,SCT,,0.01,WeatherDisplay:10.37,2013-07-22 01:00:00,
2013-07-21 20:10:00,82.7,67.9,29.82,SW,217,2.0,5.0,61,0.00,CLR,,0.01,WeatherDisplay:10.37,2013-07-22 01:10:00,
2013-07-21 20:20:00,82.0,68.1,29.82,SW,217,0.0,3.0,63,0.00,CLR,,0.01,WeatherDisplay:10.37,2013-07-22 01:20:00,
2013-07-21 20:30:00,81.3,68.4,29.82,SW,217,0.0,3.0,65,0.00,CLR,,0.01,WeatherDisplay:10.37,2013-07-22 01:30:00,
2013-07-21 20:35:00,81.0,68.1,29.82,SW,217,0.0,2.0,65,0.00,CLR,,0.01,WeatherDisplay:10.37,2013-07-22 01:35:00,
2013-07-21 20:40:00,80.7,68.3,29.82,SW,217,0.0,2.0,66,0.00,CLR,,0.01,WeatherDisplay:10.37,2013-07-22 01:40:00,
2013-07-21 20:50:00,80.1,68.1,29.82,SW,217,0.0,1.0,67,0.00,CLR,,0.01,WeatherDisplay:10.37,2013-07-22 01:50:00,
2013-07-21 21:00:00,79.5,68.0,29.83,SW,217,0.0,0.0,68,0.00,CLR,,0.01,WeatherDisplay:10.37,2013-07-22 02:00:00,
2013-07-21 21:10:00,79.0,68.0,29.83,SW,217,0.0,1.0,69,0.00,CLR,,0.01,WeatherDisplay:10.37,2013-07-22 02:10:00,
2013-07-21 21:20:00,78.4,67.8,29.83,SW,217,0.0,0.0,70,0.00,CLR,,0.01,WeatherDisplay:10.37,2013-07-22 02:20:00,
2013-07-21 21:30:00,78.0,67.8,29.84,SW,217,0.0,0.0,71,0.00,CLR,,0.01,WeatherDisplay:10.37,2013-07-22 02:30:00,
2013-07-21 21:35:00,77.9,67.7,29.84,SW,217,0.0,0.0,71,0.00,CLR,,0.01,WeatherDisplay:10.37,2013-07-22 02:35:00,
2013-07-21 21:40:00,77.9,67.7,29.84,SW,217,0.0,1.0,71,0.00,CLR,,0.01,WeatherDisplay:10.37,2013-07-22 02:40:00,
2013-07-21 21:50:00,77.8,67.6,29.84,SW,217,0.0,2.0,71,0.00,CLR,,0.01,WeatherDisplay:10.37,2013-07-22 02:50:00,
2013-07-21 22:00:00,77.6,67.8,29.84,SW,217,0.0,1.0,72,0.00,CLR,,0.01,WeatherDisplay:10.37,2013-07-22 03:00:00,
2013-07-21 22:10:00,77.2,67.9,29.84,SW,217,0.0,2.0,73,0.00,CLR,,0.01,WeatherDisplay:10.37,2013-07-22 03:10:00,
2013-07-21 22:20:00,77.0,67.6,29.84,SW,217,0.0,1.0,73,0.00,CLR,,0.01,WeatherDisplay:10.37,2013-07-22 03:20:00,
2013-07-21 22:30:00,76.5,67.6,29.85,SW,217,0.0,1.0,74,0.00,CLR,,0.01,WeatherDisplay:10.37,2013-07-22 03:30:00,
2013-07-21 22:40:00,76.5,67.6,29.84,SW,217,1.0,3.0,74,0.00,CLR,,0.01,WeatherDisplay:10.37,2013-07-22 03:40:00,
2013-07-21 22:50:00,76.2,67.7,29.84,SW,216,1.0,4.0,75,0.00,CLR,,0.01,WeatherDisplay:10.37,2013-07-22 03:50:00,
2013-07-21 23:00:00,75.9,67.7,29.83,SSW,193,1.0,5.0,76,0.00,CLR,,0.01,WeatherDisplay:10.37,2013-07-22 04:00:00,
2013-07-21 23:05:00,75.8,68.0,29.84,South,174,2.0,5.0,77,0.00,CLR,,0.01,WeatherDisplay:10.37,2013-07-22 04:05:00,
2013-07-21 23:10:00,75.8,68.1,29.83,SSE,168,1.0,5.0,77,0.00,CLR,,0.01,WeatherDisplay:10.37,2013-07-22 04:10:00,
2013-07-21 23:20:00,75.9,68.1,29.83,South,181,1.0,3.0,77,0.00,CLR,,0.01,WeatherDisplay:10.37,2013-07-22 04:20:00,
2013-07-21 23:25:00,75.7,68.0,29.83,South,170,1.0,5.0,77,0.00,CLR,,0.01,WeatherDisplay:10.37,2013-07-22 04:25:00,
2013-07-21 23:30:00,75.6,68.2,29.83,SSE,160,1.0,4.0,78,0.00,CLR,,0.01,WeatherDisplay:10.37,2013-07-22 04:30:00,
2013-07-21 23:35:00,75.5,68.1,29.84,SSE,161,1.0,3.0,78,0.00,CLR,,0.01,WeatherDisplay:10.37,2013-07-22 04:35:00,
2013-07-21 23:45:00,75.3,68.3,29.84,SSE,161,0.0,1.0,79,0.00,CLR,,0.01,WeatherDisplay:10.37,2013-07-22 04:45:00,
2013-07-21 23:50:00,75.1,68.1,29.85,SSE,161,0.0,1.0,79,0.00,CLR,,0.01,WeatherDisplay:10.37,2013-07-22 04:50:00,
2013-07-21 23:55:00,74.9,68.0,29.85,SSE,161,0.0,2.0,79,0.00,CLR,,0.01,WeatherDisplay:10.37,2013-07-22 04:55:00,